Portada
METAR-TAF:

METAR-TAF

Aeroports :

Asheboro Regional Airport

Asheboro, Carolina del Nord, Estats Units d'Amèrica

latitud: 35-39-14N, longitud: 079-53-42W, altitud: 205 m

Observació

L'informe es va fer fa 19 minuts, a les 22:55 UTC
Vent calma
Temperatura 0°C
Humitat 55%
Pressió 1029 hPa
Visibilitat: 16.1 km
Cel clar

METAR: KHBI 132255Z AUTO 00000KT 10SM CLR 00/M08 A3038 RMK AO2 T10011077

Hora: 18:14 (23:14 UTC)


TAF: manca

Observacions i pronòstics meteorològics de més de 4000 aeroports (METAR i TAF).

Les estacions disponibles són els punts grocs i vermells al mapa.

Posi el ratolí al punt desitjat per veure el nom de l'estació.

Feu clic per veure les observacions i els pronòstics meteorològics.

Per canviar el mapa: feu clic els botons verds amb una creu de color negre per apropar; al botó verd amb un guió per allunyar la imatge; o en les fletxes verdes per a mapes adjacents.


METAR-TAF: